createdAt,value
2023-02-09T00:01:22.194Z,16.48
2023-02-09T00:03:49.370Z,23.73
2023-02-09T00:06:19.147Z,19.10
2023-02-09T00:08:46.092Z,16.80
2023-02-09T00:11:21.827Z,15.65
2023-02-09T00:13:48.565Z,15.63
2023-02-09T00:16:15.258Z,18.15
2023-02-09T00:18:41.944Z,18.58
2023-02-09T00:21:11.151Z,23.40
2023-02-09T00:23:40.213Z,17.98
2023-02-09T00:26:10.402Z,23.08
2023-02-09T00:28:37.231Z,21.05
2023-02-09T00:31:09.614Z,16.95
2023-02-09T00:33:37.518Z,22.15
2023-02-09T00:36:08.590Z,19.70
2023-02-09T00:38:36.308Z,21.13
2023-02-09T00:41:04.020Z,17.83
2023-02-09T00:43:33.870Z,21.13
2023-02-09T00:46:00.992Z,19.60
2023-02-09T00:48:28.065Z,20.73
2023-02-09T00:50:55.899Z,27.42
2023-02-09T00:53:23.126Z,25.95
2023-02-09T00:55:50.785Z,23.20
2023-02-09T00:58:17.893Z,27.85
2023-02-09T01:00:45.301Z,21.02
2023-02-09T01:03:12.137Z,28.48
2023-02-09T01:05:40.538Z,18.60
2023-02-09T01:08:07.256Z,17.98
2023-02-09T01:10:34.237Z,17.17
2023-02-09T01:13:00.888Z,18.85
2023-02-09T01:15:28.980Z,20.95
2023-02-09T01:17:55.952Z,18.92
2023-02-09T01:20:22.714Z,23.90
2023-02-09T01:22:49.373Z,19.88
2023-02-09T01:25:16.017Z,16.58
2023-02-09T01:27:42.839Z,21.25
2023-02-09T01:30:10.375Z,16.35
2023-02-09T01:32:37.669Z,17.90
2023-02-09T01:35:04.878Z,20.60
2023-02-09T01:37:34.037Z,28.33
2023-02-09T01:40:00.940Z,16.90
2023-02-09T01:42:27.956Z,16.88
2023-02-09T01:45:20.521Z,21.35
2023-02-09T01:47:54.546Z,19.05
2023-02-09T01:50:22.176Z,16.90
2023-02-09T01:52:49.750Z,21.63
2023-02-09T01:55:20.501Z,17.05
2023-02-09T01:57:53.956Z,24.70
2023-02-09T02:00:22.173Z,19.65
2023-02-09T02:03:03.987Z,18.75
2023-02-09T02:05:33.961Z,18.83
2023-02-09T02:08:24.664Z,27.75
2023-02-09T02:10:52.987Z,20.17
2023-02-09T02:13:20.689Z,18.17
2023-02-09T02:16:15.616Z,19.40
2023-02-09T02:19:01.529Z,22.13
2023-02-09T02:22:08.701Z,23.50
2023-02-09T02:24:47.333Z,18.83
2023-02-09T02:27:37.073Z,19.88
2023-02-09T02:30:34.964Z,20.60
2023-02-09T02:33:20.367Z,20.58
2023-02-09T02:36:01.231Z,24.08
2023-02-09T02:38:55.815Z,22.23
2023-02-09T02:42:02.829Z,21.63
2023-02-09T02:44:31.665Z,25.50
2023-02-09T02:47:03.730Z,20.80
2023-02-09T02:49:40.940Z,21.00
2023-02-09T02:52:09.513Z,19.83
2023-02-09T02:54:45.345Z,24.15
2023-02-09T02:57:20.525Z,19.02
2023-02-09T02:59:57.387Z,19.75
2023-02-09T03:02:31.052Z,27.15
2023-02-09T03:04:58.839Z,15.13
2023-02-09T03:07:25.557Z,21.23
2023-02-09T03:09:54.766Z,21.80
2023-02-09T03:12:30.435Z,15.48
2023-02-09T03:15:15.314Z,17.48
2023-02-09T03:20:14.503Z,20.27
2023-02-09T03:22:52.608Z,13.35
2023-02-09T03:25:29.406Z,17.35
2023-02-09T03:28:08.443Z,15.27
2023-02-09T03:30:36.845Z,17.27
2023-02-09T03:33:05.087Z,20.42
2023-02-09T03:35:38.529Z,25.48
2023-02-09T03:38:06.649Z,19.48
2023-02-09T03:40:34.601Z,23.23
2023-02-09T03:43:01.350Z,20.17
2023-02-09T03:45:28.059Z,20.63
2023-02-09T03:47:54.952Z,18.25
2023-02-09T03:50:21.628Z,23.00
2023-02-09T03:52:48.248Z,20.25
2023-02-09T03:55:14.980Z,20.77
2023-02-09T03:57:41.616Z,22.70
2023-02-09T04:00:09.723Z,19.15
2023-02-09T04:02:36.597Z,23.75
2023-02-09T04:05:05.692Z,21.48
2023-02-09T04:07:32.731Z,15.43
2023-02-09T04:09:59.715Z,17.75
2023-02-09T04:12:26.418Z,18.63
2023-02-09T04:14:53.120Z,23.77
2023-02-09T04:17:19.869Z,23.42
2023-02-09T04:19:46.523Z,18.27
2023-02-09T04:22:13.146Z,17.83
2023-02-09T04:24:39.979Z,21.23
2023-02-09T04:27:06.616Z,16.73
2023-02-09T04:29:33.373Z,18.73
2023-02-09T04:32:00.108Z,18.35
2023-02-09T04:34:26.865Z,17.60
2023-02-09T04:36:53.535Z,20.02
2023-02-09T04:39:20.218Z,19.70
2023-02-09T04:41:46.866Z,19.17
2023-02-09T04:44:13.528Z,17.38
2023-02-09T04:46:40.224Z,19.08
2023-02-09T04:49:06.848Z,14.43
2023-02-09T04:51:33.517Z,25.95
2023-02-09T04:54:00.178Z,20.83
2023-02-09T04:56:26.893Z,13.77
2023-02-09T04:59:12.159Z,21.42
2023-02-09T05:01:38.903Z,14.23
2023-02-09T05:04:05.626Z,19.10
2023-02-09T05:06:32.216Z,21.00
2023-02-09T05:09:00.854Z,20.27
2023-02-09T05:11:27.804Z,18.50
2023-02-09T05:13:55.247Z,22.80
2023-02-09T05:16:22.030Z,15.43
2023-02-09T05:18:50.282Z,18.95
2023-02-09T05:21:17.014Z,18.10
2023-02-09T05:23:43.646Z,16.92
2023-02-09T05:26:10.352Z,20.58
2023-02-09T05:28:37.102Z,18.92
2023-02-09T05:31:04.057Z,19.27
2023-02-09T05:33:31.010Z,21.60
2023-02-09T05:35:57.756Z,18.00
2023-02-09T05:38:24.392Z,20.08
2023-02-09T05:40:51.372Z,23.20
2023-02-09T05:43:18.395Z,16.52
2023-02-09T05:45:46.067Z,19.27
2023-02-09T05:48:12.820Z,23.23
2023-02-09T05:50:39.644Z,16.55
2023-02-09T05:53:06.312Z,21.08
2023-02-09T05:55:32.980Z,16.33
2023-02-09T05:57:59.707Z,16.77
2023-02-09T06:00:27.668Z,19.08
2023-02-09T06:02:54.355Z,22.92
2023-02-09T06:05:21.988Z,21.13
2023-02-09T06:07:48.975Z,18.52
2023-02-09T06:10:17.167Z,20.75
2023-02-09T06:12:43.951Z,24.00
2023-02-09T06:15:10.913Z,18.35
2023-02-09T06:17:37.852Z,17.98
2023-02-09T06:20:05.663Z,18.50
2023-02-09T06:22:32.392Z,15.90
2023-02-09T06:25:00.132Z,19.98
2023-02-09T06:27:26.911Z,14.60
2023-02-09T06:29:53.579Z,17.38
2023-02-09T06:32:20.208Z,20.08
2023-02-09T06:34:46.952Z,18.70
2023-02-09T06:37:13.690Z,15.23
2023-02-09T06:39:40.369Z,16.45
2023-02-09T06:42:07.049Z,14.10
2023-02-09T06:44:33.723Z,19.38
2023-02-09T06:47:00.391Z,20.52
2023-02-09T06:49:27.105Z,29.50
2023-02-09T06:51:53.981Z,17.98
2023-02-09T06:54:21.257Z,15.50
2023-02-09T06:56:48.178Z,22.95
2023-02-09T06:59:14.880Z,23.15
2023-02-09T07:01:41.801Z,15.43
2023-02-09T07:04:09.060Z,22.60
2023-02-09T07:06:35.812Z,20.27
2023-02-09T07:09:02.586Z,23.02
2023-02-09T07:11:30.500Z,16.33
2023-02-09T07:13:57.439Z,21.10
2023-02-09T07:16:24.235Z,18.92
2023-02-09T07:18:52.984Z,33.00
2023-02-09T07:21:21.615Z,22.90
2023-02-09T07:23:48.484Z,20.73
2023-02-09T07:26:17.700Z,16.67
2023-02-09T07:28:44.627Z,16.52
2023-02-09T07:31:13.595Z,15.70
2023-02-09T07:33:43.526Z,16.67
2023-02-09T07:36:12.102Z,15.02
2023-02-09T07:38:40.093Z,19.83
2023-02-09T07:41:08.188Z,20.25
2023-02-09T07:43:35.108Z,17.50
2023-02-09T07:46:06.965Z,22.08
2023-02-09T07:48:34.417Z,23.30
2023-02-09T07:51:01.513Z,21.50
2023-02-09T07:53:29.027Z,12.75
2023-02-09T07:55:56.046Z,18.20
2023-02-09T07:58:23.310Z,17.13
2023-02-09T08:00:51.665Z,20.05
2023-02-09T08:03:21.241Z,25.65
2023-02-09T08:06:00.468Z,23.63
2023-02-09T08:08:27.211Z,20.33
2023-02-09T08:10:56.578Z,14.45
2023-02-09T08:13:24.709Z,15.80
2023-02-09T08:15:55.552Z,19.85
2023-02-09T08:18:39.897Z,19.00
2023-02-09T08:21:11.395Z,23.25
2023-02-09T08:23:40.621Z,21.65
2023-02-09T08:26:10.261Z,22.95
2023-02-09T08:28:43.899Z,19.52
2023-02-09T08:31:21.614Z,25.80
2023-02-09T08:33:50.244Z,18.10
2023-02-09T08:36:20.961Z,20.80
2023-02-09T08:38:50.579Z,27.00
2023-02-09T08:41:18.898Z,22.85
2023-02-09T08:43:55.642Z,24.40
2023-02-09T08:46:22.405Z,20.73
2023-02-09T08:48:49.280Z,17.83
2023-02-09T08:51:16.839Z,25.58
2023-02-09T08:53:46.046Z,19.65
2023-02-09T08:56:12.622Z,20.85
2023-02-09T08:58:39.282Z,18.73
2023-02-09T09:01:06.099Z,26.90
2023-02-09T09:03:33.226Z,26.08
2023-02-09T09:06:07.941Z,26.20
2023-02-09T09:08:35.927Z,24.77
2023-02-09T09:11:03.022Z,23.48
2023-02-09T09:13:30.046Z,20.13
2023-02-09T09:15:56.923Z,14.60
2023-02-09T09:18:25.396Z,24.70
2023-02-09T09:20:56.311Z,28.20
2023-02-09T09:23:22.980Z,27.08
2023-02-09T09:25:49.835Z,25.20
2023-02-09T09:28:16.931Z,18.88
2023-02-09T09:30:43.650Z,14.35
2023-02-09T09:33:10.383Z,22.40
2023-02-09T09:35:37.137Z,26.65
2023-02-09T09:38:04.725Z,22.20
2023-02-09T09:40:34.983Z,29.27
2023-02-09T09:43:05.687Z,21.50
2023-02-09T09:45:35.295Z,19.40
2023-02-09T09:48:02.428Z,29.10
2023-02-09T09:50:39.138Z,21.35
2023-02-09T09:53:31.784Z,31.50
2023-02-09T09:56:02.776Z,18.38
2023-02-09T09:58:30.734Z,28.40
2023-02-09T10:00:57.715Z,16.98
2023-02-09T10:03:25.441Z,28.48
2023-02-09T10:05:55.642Z,28.30
2023-02-09T10:08:37.067Z,23.13
2023-02-09T10:11:29.119Z,38.40
2023-02-09T10:13:57.736Z,25.88
2023-02-09T10:16:25.573Z,12.50
2023-02-09T10:19:06.766Z,25.58
2023-02-09T10:21:36.179Z,14.25
2023-02-09T10:24:24.477Z,23.55
2023-02-09T10:27:24.144Z,30.45
2023-02-09T10:29:50.882Z,21.67
2023-02-09T10:32:21.214Z,20.77
2023-02-09T10:34:50.916Z,33.40
2023-02-09T10:37:35.286Z,22.95
2023-02-09T10:40:14.019Z,28.55
2023-02-09T10:42:55.894Z,32.85
2023-02-09T10:45:38.307Z,32.67
2023-02-09T10:48:14.170Z,29.08
2023-02-09T10:50:58.459Z,34.08
2023-02-09T10:53:46.264Z,18.25
2023-02-09T10:56:19.395Z,28.67
2023-02-09T10:59:16.229Z,30.42
2023-02-09T11:01:49.272Z,36.33
2023-02-09T11:04:16.047Z,37.88
2023-02-09T11:06:53.226Z,18.27
2023-02-09T11:09:35.431Z,38.70
2023-02-09T11:12:02.531Z,22.33
2023-02-09T11:14:29.590Z,20.77
2023-02-09T11:17:23.825Z,30.67
2023-02-09T11:20:21.707Z,33.15
2023-02-09T11:23:07.241Z,34.60
2023-02-09T11:25:50.615Z,30.95
2023-02-09T11:28:41.494Z,30.08
2023-02-09T11:31:26.789Z,12.10
2023-02-09T11:34:26.268Z,39.20
2023-02-09T11:37:25.509Z,30.00
2023-02-09T11:40:18.260Z,38.72
2023-02-09T11:43:11.985Z,36.83
2023-02-09T11:45:50.683Z,36.63
2023-02-09T11:48:29.130Z,40.50
2023-02-09T11:51:04.169Z,26.00
2023-02-09T11:53:43.152Z,30.15
2023-02-09T11:56:13.542Z,13.05
2023-02-09T11:58:53.167Z,29.95
2023-02-09T12:01:20.223Z,35.50
2023-02-09T12:04:31.799Z,14.07
2023-02-09T12:07:10.252Z,13.00
2023-02-09T12:09:55.777Z,25.65
2023-02-09T12:12:31.741Z,45.45
2023-02-09T12:15:13.907Z,26.50
2023-02-09T12:18:03.233Z,36.38
2023-02-09T12:20:47.078Z,30.83
2023-02-09T12:23:19.704Z,38.22
2023-02-09T12:26:11.374Z,32.28
2023-02-09T12:28:43.941Z,38.70
2023-02-09T12:31:22.115Z,27.88
2023-02-09T12:33:48.784Z,41.33
2023-02-09T12:36:18.130Z,32.67
2023-02-09T12:38:55.916Z,37.30
2023-02-09T12:41:25.110Z,36.80
2023-02-09T12:44:08.265Z,18.33
2023-02-09T12:46:57.786Z,19.15
2023-02-09T12:49:27.631Z,30.92
2023-02-09T12:52:03.458Z,38.53
2023-02-09T12:54:50.927Z,28.20
2023-02-09T12:57:20.361Z,24.30
2023-02-09T12:59:50.210Z,37.58
2023-02-09T13:02:27.854Z,30.45
2023-02-09T13:05:00.629Z,38.83
2023-02-09T13:07:44.469Z,33.75
2023-02-09T13:10:24.589Z,20.70
2023-02-09T13:13:14.498Z,41.67
2023-02-09T13:16:03.224Z,26.20
2023-02-09T13:18:37.331Z,46.47
2023-02-09T13:21:42.062Z,30.95
2023-02-09T13:24:10.256Z,32.90
2023-02-09T13:26:48.936Z,35.90
2023-02-09T13:29:22.255Z,33.20
2023-02-09T13:32:28.963Z,9.70
2023-02-09T13:35:03.160Z,20.60
2023-02-09T13:37:49.531Z,38.10
2023-02-09T13:40:34.070Z,44.95
2023-02-09T13:43:00.709Z,37.92
2023-02-09T13:45:28.103Z,46.58
2023-02-09T13:47:57.211Z,34.22
2023-02-09T13:50:25.858Z,25.42
2023-02-09T13:52:52.534Z,43.17
2023-02-09T13:55:26.948Z,48.60
2023-02-09T13:58:01.479Z,48.92
2023-02-09T14:00:40.422Z,34.25
2023-02-09T14:03:26.684Z,30.60
2023-02-09T14:06:09.138Z,33.65
2023-02-09T14:08:39.129Z,30.65
2023-02-09T14:11:41.512Z,45.65
2023-02-09T14:14:58.113Z,36.20
2023-02-09T14:17:28.500Z,32.92
2023-02-09T14:19:57.197Z,44.55
2023-02-09T14:22:33.477Z,49.88
2023-02-09T14:25:00.990Z,45.88
2023-02-09T14:27:29.504Z,45.83
2023-02-09T14:29:56.330Z,42.58
2023-02-09T14:32:35.319Z,34.80
2023-02-09T14:35:28.788Z,45.42
2023-02-09T14:37:59.507Z,51.60
2023-02-09T14:40:31.751Z,42.97
2023-02-09T14:43:10.365Z,29.75
2023-02-09T14:45:44.617Z,37.85
2023-02-09T14:48:26.496Z,41.67
2023-02-09T14:51:01.778Z,50.67
2023-02-09T14:53:31.438Z,43.72
2023-02-09T14:55:58.844Z,42.17
2023-02-09T14:58:28.670Z,48.13
2023-02-09T15:00:57.246Z,42.28
2023-02-09T15:03:24.310Z,35.40
2023-02-09T15:05:55.324Z,50.55
2023-02-09T15:08:25.625Z,49.22
2023-02-09T15:10:56.094Z,34.78
2023-02-09T15:13:23.354Z,18.98
2023-02-09T15:15:50.162Z,47.67
2023-02-09T15:18:22.982Z,44.15
2023-02-09T15:20:50.394Z,49.85
2023-02-09T15:23:17.405Z,48.67
2023-02-09T15:25:44.967Z,51.00
2023-02-09T15:28:19.202Z,38.83
2023-02-09T15:30:46.770Z,23.73
2023-02-09T15:33:13.696Z,45.72
2023-02-09T15:35:41.175Z,51.88
2023-02-09T15:38:14.001Z,34.67
2023-02-09T15:41:01.810Z,50.17
2023-02-09T15:43:47.566Z,49.58
2023-02-09T15:46:40.018Z,56.13
2023-02-09T15:49:07.481Z,37.63
2023-02-09T15:51:37.401Z,46.03
2023-02-09T15:54:15.980Z,50.65
2023-02-09T15:56:43.022Z,45.65
2023-02-09T15:59:21.339Z,41.90
2023-02-09T16:01:48.751Z,55.00
2023-02-09T16:04:15.597Z,42.10
2023-02-09T16:06:50.760Z,50.63
2023-02-09T16:09:27.581Z,50.80
2023-02-09T16:11:57.400Z,30.00
2023-02-09T16:14:26.929Z,43.70
2023-02-09T16:16:56.209Z,42.47
2023-02-09T16:19:22.921Z,44.30
2023-02-09T16:21:54.177Z,25.13
2023-02-09T16:24:35.749Z,58.10
2023-02-09T16:27:07.300Z,51.17
2023-02-09T16:29:33.950Z,49.25
2023-02-09T16:32:00.628Z,55.85
2023-02-09T16:34:27.330Z,64.78
2023-02-09T16:36:55.076Z,52.80
2023-02-09T16:39:22.290Z,53.72
2023-02-09T16:41:52.882Z,55.92
2023-02-09T16:44:23.300Z,52.47
2023-02-09T16:46:55.654Z,54.78
2023-02-09T16:49:27.873Z,56.22
2023-02-09T16:51:57.875Z,54.63
2023-02-09T16:54:24.658Z,51.17
2023-02-09T16:56:54.793Z,43.83
2023-02-09T16:59:21.715Z,58.97
2023-02-09T17:01:48.994Z,41.47
2023-02-09T17:04:15.897Z,54.03
2023-02-09T17:06:44.948Z,41.88
2023-02-09T17:09:17.138Z,53.15
2023-02-09T17:11:44.089Z,55.95
2023-02-09T17:14:12.343Z,43.83
2023-02-09T17:16:43.338Z,46.35
2023-02-09T17:19:15.362Z,56.30
2023-02-09T17:21:42.464Z,47.95
2023-02-09T17:24:16.978Z,55.38
2023-02-09T17:26:44.231Z,50.17
2023-02-09T17:29:11.647Z,70.50
2023-02-09T17:31:52.287Z,48.35
2023-02-09T17:34:20.616Z,52.72
2023-02-09T17:36:47.372Z,62.55
2023-02-09T17:39:14.221Z,56.75
2023-02-09T17:41:46.517Z,52.15
2023-02-09T17:44:39.085Z,57.15
2023-02-09T17:47:03.307Z,53.25
2023-02-09T17:49:30.109Z,50.17
2023-02-09T17:51:56.842Z,69.43
2023-02-09T17:54:23.480Z,61.38
2023-02-09T17:56:50.225Z,69.35
2023-02-09T17:59:19.863Z,59.88
2023-02-09T18:01:50.020Z,69.10
2023-02-09T18:04:19.592Z,63.53
2023-02-09T18:06:46.432Z,57.72
2023-02-09T18:09:13.926Z,57.60
2023-02-09T18:11:54.657Z,55.30
2023-02-09T18:14:23.183Z,51.67
2023-02-09T18:16:50.724Z,53.38
2023-02-09T18:19:18.211Z,54.22
2023-02-09T18:21:58.985Z,52.08
2023-02-09T18:24:29.262Z,54.78
2023-02-09T18:26:55.995Z,44.83
2023-02-09T18:29:28.912Z,49.05
2023-02-09T18:31:57.419Z,56.15
2023-02-09T18:34:24.130Z,47.70
2023-02-09T18:36:50.815Z,42.38
2023-02-09T18:39:17.592Z,50.83
2023-02-09T18:41:46.292Z,57.17
2023-02-09T18:44:13.324Z,57.13
2023-02-09T18:46:42.223Z,54.45
2023-02-09T18:49:12.278Z,54.53
2023-02-09T18:51:39.109Z,53.40
2023-02-09T18:54:05.932Z,61.05
2023-02-09T18:56:32.648Z,67.18
2023-02-09T18:58:59.633Z,57.00
2023-02-09T19:01:26.551Z,57.58
2023-02-09T19:03:54.200Z,59.58
2023-02-09T19:06:22.270Z,56.40
2023-02-09T19:08:50.391Z,48.55
2023-02-09T19:11:19.622Z,58.90
2023-02-09T19:14:06.628Z,51.85
2023-02-09T19:16:33.861Z,54.85
2023-02-09T19:19:00.703Z,57.42
2023-02-09T19:21:28.473Z,67.25
2023-02-09T19:23:55.356Z,64.10
2023-02-09T19:26:22.015Z,63.70
2023-02-09T19:28:48.770Z,62.20
2023-02-09T19:31:17.653Z,66.72
2023-02-09T19:33:47.069Z,66.88
2023-02-09T19:36:31.969Z,52.35
2023-02-09T19:38:58.778Z,66.80
2023-02-09T19:41:25.815Z,53.88
2023-02-09T19:43:57.236Z,47.05
2023-02-09T19:46:24.761Z,46.97
2023-02-09T19:48:53.704Z,47.40
2023-02-09T19:51:20.536Z,44.33
2023-02-09T19:53:47.277Z,45.42
2023-02-09T19:56:21.452Z,75.30
2023-02-09T19:58:48.157Z,83.68
2023-02-09T20:01:15.225Z,64.25
2023-02-09T20:03:42.154Z,84.82
2023-02-09T20:06:11.576Z,56.53
2023-02-09T20:08:39.244Z,67.90
2023-02-09T20:11:15.859Z,45.00
2023-02-09T20:13:42.732Z,48.28
2023-02-09T20:16:16.804Z,50.92
2023-02-09T20:18:45.075Z,53.45
2023-02-09T20:21:12.756Z,49.08
2023-02-09T20:23:40.417Z,48.10
2023-02-09T20:26:16.060Z,49.92
2023-02-09T20:28:43.131Z,48.75
2023-02-09T20:31:10.583Z,47.35
2023-02-09T20:33:39.085Z,40.97
2023-02-09T20:36:07.426Z,41.97
2023-02-09T20:38:36.170Z,47.40
2023-02-09T20:41:03.254Z,50.88
2023-02-09T20:43:48.363Z,49.08
2023-02-09T20:46:38.231Z,50.85
2023-02-09T20:49:05.432Z,46.10
2023-02-09T20:51:32.233Z,46.85
2023-02-09T20:53:59.301Z,46.15
2023-02-09T20:56:27.345Z,50.47
2023-02-09T20:58:54.259Z,44.63
2023-02-09T21:01:23.314Z,39.17
2023-02-09T21:03:50.909Z,49.17
2023-02-09T21:06:17.685Z,50.67
2023-02-09T21:08:44.447Z,45.92
2023-02-09T21:11:11.267Z,43.28
2023-02-09T21:13:40.937Z,38.88
2023-02-09T21:16:09.258Z,41.35
2023-02-09T21:18:37.650Z,39.55
2023-02-09T21:21:09.529Z,35.47
2023-02-09T21:23:36.412Z,43.53
2023-02-09T21:26:04.809Z,48.83
2023-02-09T21:28:36.207Z,41.53
2023-02-09T21:31:08.709Z,42.10
2023-02-09T21:33:36.533Z,45.60
2023-02-09T21:36:06.296Z,40.72
2023-02-09T21:38:33.505Z,45.10
2023-02-09T21:41:00.158Z,49.80
2023-02-09T21:43:26.833Z,42.22
2023-02-09T21:45:53.501Z,39.25
2023-02-09T21:48:20.226Z,47.72
2023-02-09T21:50:46.960Z,43.70
2023-02-09T21:53:13.663Z,33.70
2023-02-09T21:55:40.351Z,46.95
2023-02-09T21:58:07.044Z,39.30
2023-02-09T22:00:33.762Z,43.35
2023-02-09T22:03:00.440Z,38.85
2023-02-09T22:05:27.159Z,37.75
2023-02-09T22:07:53.766Z,33.78
2023-02-09T22:10:20.451Z,43.17
2023-02-09T22:12:47.100Z,34.22
2023-02-09T22:15:13.998Z,33.67
2023-02-09T22:17:40.710Z,34.20
2023-02-09T22:20:09.288Z,35.22
2023-02-09T22:22:36.189Z,30.58
2023-02-09T22:25:02.906Z,31.58
2023-02-09T22:27:29.545Z,30.10
2023-02-09T22:29:56.209Z,35.50
2023-02-09T22:32:22.913Z,38.80
2023-02-09T22:34:49.556Z,37.03
2023-02-09T22:37:16.333Z,36.75
2023-02-09T22:39:44.890Z,33.40
2023-02-09T22:42:11.480Z,35.20
2023-02-09T22:44:38.145Z,43.15
2023-02-09T22:47:04.882Z,34.40
2023-02-09T22:49:31.671Z,34.38
2023-02-09T22:51:58.277Z,40.75
2023-02-09T22:54:26.902Z,33.83
2023-02-09T22:56:53.619Z,34.28
2023-02-09T22:59:20.230Z,27.27
2023-02-09T23:01:47.879Z,35.03
2023-02-09T23:04:14.578Z,40.22
2023-02-09T23:06:41.348Z,30.55
2023-02-09T23:09:08.545Z,35.88
2023-02-09T23:11:35.965Z,38.63
2023-02-09T23:14:09.760Z,31.98
2023-02-09T23:16:37.982Z,31.10
2023-02-09T23:19:07.241Z,30.10
2023-02-09T23:21:36.801Z,28.05
2023-02-09T23:24:04.466Z,30.00
2023-02-09T23:26:31.848Z,33.47
2023-02-09T23:29:00.389Z,31.05
2023-02-09T23:31:27.257Z,31.25
2023-02-09T23:33:54.714Z,31.85
2023-02-09T23:36:23.682Z,32.30
2023-02-09T23:38:55.857Z,35.75
2023-02-09T23:41:22.821Z,31.08
2023-02-09T23:43:49.990Z,33.10
2023-02-09T23:46:22.402Z,32.00
2023-02-09T23:48:49.994Z,37.30
2023-02-09T23:51:24.169Z,27.10
2023-02-09T23:53:52.278Z,31.70
2023-02-09T23:56:20.124Z,26.88
2023-02-09T23:58:48.909Z,27.38
